createdAt,value
2024-03-11T00:00:20.122Z,83.13
2024-03-11T00:03:07.874Z,83.34
2024-03-11T00:05:37.769Z,82.86
2024-03-11T00:08:06.557Z,82.89
2024-03-11T00:10:33.960Z,83.19
2024-03-11T00:13:03.115Z,82.75
2024-03-11T00:15:32.328Z,82.26
2024-03-11T00:18:00.034Z,82.36
2024-03-11T00:20:27.432Z,81.95
2024-03-11T00:22:55.121Z,82.23
2024-03-11T00:25:22.355Z,82.38
2024-03-11T00:27:51.916Z,82.49
2024-03-11T00:30:20.538Z,81.75
2024-03-11T00:32:50.174Z,81.92
2024-03-11T00:35:17.793Z,82.26
2024-03-11T00:37:46.283Z,81.99
2024-03-11T00:40:14.041Z,82.06
2024-03-11T00:42:41.656Z,82.32
2024-03-11T00:45:10.242Z,82.22
2024-03-11T00:47:39.715Z,82.57
2024-03-11T00:50:08.479Z,82.42
2024-03-11T00:52:36.223Z,82.38
2024-03-11T00:55:06.043Z,82.06
2024-03-11T00:57:34.088Z,82.41
2024-03-11T01:00:01.317Z,82.28
2024-03-11T01:02:29.050Z,82.06
2024-03-11T01:04:57.800Z,82.58
2024-03-11T01:07:35.126Z,82.28
2024-03-11T01:10:14.325Z,82.76
2024-03-11T01:12:42.122Z,82.50
2024-03-11T01:15:09.931Z,82.25
2024-03-11T01:17:40.143Z,82.77
2024-03-11T01:20:12.519Z,82.95
2024-03-11T01:22:40.962Z,82.55
2024-03-11T01:25:11.974Z,82.73
2024-03-11T01:27:40.278Z,83.06
2024-03-11T01:30:09.202Z,82.87
2024-03-11T01:32:37.914Z,83.14
2024-03-11T01:35:05.601Z,83.01
2024-03-11T01:37:34.769Z,83.81
2024-03-11T01:40:02.222Z,83.48
2024-03-11T01:42:29.880Z,83.94
2024-03-11T01:44:57.318Z,83.79
2024-03-11T01:47:26.638Z,83.75
2024-03-11T01:49:55.761Z,84.41
2024-03-11T01:52:27.354Z,84.24
2024-03-11T01:54:57.328Z,84.46
2024-03-11T01:57:26.251Z,84.64
2024-03-11T01:59:58.605Z,84.60
2024-03-11T02:02:26.475Z,84.78
2024-03-11T02:04:54.396Z,84.95
2024-03-11T02:07:23.582Z,85.50
2024-03-11T02:09:51.033Z,85.58
2024-03-11T02:12:23.792Z,86.02
2024-03-11T02:14:50.862Z,86.32
2024-03-11T02:17:19.007Z,86.05
2024-03-11T02:19:48.777Z,85.89
2024-03-11T02:22:21.411Z,86.15
2024-03-11T02:24:53.965Z,86.08
2024-03-11T02:27:21.670Z,85.92
2024-03-11T02:29:49.023Z,86.14
2024-03-11T02:32:16.745Z,86.23
2024-03-11T02:34:44.069Z,86.12
2024-03-11T02:37:11.637Z,85.72
2024-03-11T02:39:39.092Z,85.60
2024-03-11T02:42:08.028Z,85.92
2024-03-11T02:44:38.220Z,85.19
2024-03-11T02:47:06.256Z,86.06
2024-03-11T02:49:33.521Z,85.92
2024-03-11T02:52:01.187Z,85.60
2024-03-11T02:54:28.521Z,85.53
2024-03-11T02:57:00.432Z,85.65
2024-03-11T02:59:29.129Z,86.03
2024-03-11T03:01:58.926Z,85.84
2024-03-11T03:04:26.114Z,86.25
2024-03-11T03:06:53.886Z,86.49
2024-03-11T03:09:21.069Z,86.08
2024-03-11T03:11:51.815Z,85.99
2024-03-11T03:14:19.390Z,86.32
2024-03-11T03:16:52.122Z,86.44
2024-03-11T03:19:19.189Z,86.12
2024-03-11T03:21:49.698Z,86.40
2024-03-11T03:24:17.190Z,86.67
2024-03-11T03:26:46.713Z,86.58
2024-03-11T03:29:15.771Z,86.72
2024-03-11T03:31:43.332Z,86.87
2024-03-11T03:34:11.969Z,87.01
2024-03-11T03:36:39.818Z,87.19
2024-03-11T03:39:09.576Z,87.36
2024-03-11T03:41:37.436Z,87.18
2024-03-11T03:44:05.271Z,87.39
2024-03-11T03:46:33.157Z,87.78
2024-03-11T03:49:00.503Z,88.15
2024-03-11T03:51:32.902Z,88.12
2024-03-11T03:54:00.444Z,87.75
2024-03-11T03:56:28.290Z,87.34
2024-03-11T03:58:55.741Z,87.25
2024-03-11T04:01:23.687Z,87.11
2024-03-11T04:03:51.269Z,87.34
2024-03-11T04:06:18.946Z,87.59
2024-03-11T04:08:47.988Z,87.18
2024-03-11T04:11:15.834Z,87.02
2024-03-11T04:13:43.111Z,87.16
2024-03-11T04:16:13.577Z,87.24
2024-03-11T04:18:40.869Z,87.13
2024-03-11T04:21:08.534Z,87.81
2024-03-11T04:23:35.954Z,87.90
2024-03-11T04:26:05.346Z,87.61
2024-03-11T04:28:32.713Z,87.58
2024-03-11T04:31:00.344Z,87.64
2024-03-11T04:33:27.747Z,87.84
2024-03-11T04:35:55.449Z,87.98
2024-03-11T04:38:22.860Z,88.71
2024-03-11T04:40:50.667Z,88.09
2024-03-11T04:43:19.424Z,88.01
2024-03-11T04:45:47.137Z,88.14
2024-03-11T04:48:14.522Z,88.82
2024-03-11T04:50:44.232Z,88.14
2024-03-11T04:53:14.631Z,87.89
2024-03-11T04:55:42.450Z,88.27
2024-03-11T04:58:10.487Z,88.74
2024-03-11T05:00:44.458Z,88.77
2024-03-11T05:03:11.789Z,88.72
2024-03-11T05:05:39.665Z,89.06
2024-03-11T05:08:08.099Z,89.58
2024-03-11T05:10:36.028Z,90.00
2024-03-11T05:13:03.454Z,90.69
2024-03-11T05:15:31.033Z,90.71
2024-03-11T05:17:59.901Z,90.69
2024-03-11T05:20:27.666Z,90.08
2024-03-11T05:22:55.085Z,90.47
2024-03-11T05:25:22.828Z,90.73
2024-03-11T05:27:50.204Z,90.34
2024-03-11T05:30:22.477Z,90.42
2024-03-11T05:32:50.100Z,90.55
2024-03-11T05:35:25.732Z,90.49
2024-03-11T05:37:53.411Z,90.30
2024-03-11T05:40:25.445Z,90.74
2024-03-11T05:42:52.817Z,90.89
2024-03-11T05:45:26.046Z,91.05
2024-03-11T05:47:55.156Z,91.29
2024-03-11T05:50:25.164Z,91.56
2024-03-11T05:52:52.680Z,91.95
2024-03-11T05:55:20.451Z,91.76
2024-03-11T05:57:47.902Z,91.25
2024-03-11T06:00:16.121Z,91.01
2024-03-11T06:02:47.380Z,91.38
2024-03-11T06:05:15.572Z,91.29
2024-03-11T06:07:44.377Z,91.13
2024-03-11T06:10:12.312Z,90.56
2024-03-11T06:12:39.630Z,90.43
2024-03-11T06:15:15.054Z,91.02
2024-03-11T06:17:42.880Z,90.79
2024-03-11T06:20:11.959Z,89.95
2024-03-11T06:22:39.312Z,90.48
2024-03-11T06:25:09.087Z,90.24
2024-03-11T06:27:39.349Z,90.00
2024-03-11T06:30:10.329Z,89.97
2024-03-11T06:32:37.642Z,89.54
2024-03-11T06:35:06.026Z,89.43
2024-03-11T06:37:33.469Z,89.46
2024-03-11T06:40:01.268Z,89.02
2024-03-11T06:42:30.191Z,89.32
2024-03-11T06:44:58.005Z,89.00
2024-03-11T06:47:28.154Z,88.52
2024-03-11T06:49:55.742Z,88.28
2024-03-11T06:52:23.328Z,87.58
2024-03-11T06:54:51.221Z,88.09
2024-03-11T06:57:18.784Z,87.81
2024-03-11T06:59:51.991Z,87.97
2024-03-11T07:02:19.417Z,87.34
2024-03-11T07:04:47.618Z,87.37
2024-03-11T07:07:15.363Z,86.93
2024-03-11T07:09:43.359Z,86.77
2024-03-11T07:12:10.984Z,86.83
2024-03-11T07:14:38.999Z,87.38
2024-03-11T07:17:12.200Z,87.46
2024-03-11T07:19:40.615Z,87.62
2024-03-11T07:22:08.283Z,86.91
2024-03-11T07:24:38.985Z,87.15
2024-03-11T07:27:06.453Z,87.00
2024-03-11T07:29:34.367Z,87.20
2024-03-11T07:32:02.056Z,86.59
2024-03-11T07:34:36.335Z,85.88
2024-03-11T07:37:04.415Z,85.75
2024-03-11T07:39:32.214Z,86.55
2024-03-11T07:41:59.770Z,86.42
2024-03-11T07:44:27.421Z,85.62
2024-03-11T07:46:55.134Z,86.05
2024-03-11T07:49:22.925Z,86.09
2024-03-11T07:51:51.701Z,85.95
2024-03-11T07:54:19.452Z,85.59
2024-03-11T07:56:46.816Z,85.31
2024-03-11T07:59:14.549Z,85.20
2024-03-11T08:01:42.169Z,85.74
2024-03-11T08:04:10.130Z,85.38
2024-03-11T08:06:42.438Z,84.38
2024-03-11T08:09:14.895Z,84.45
2024-03-11T08:11:42.751Z,84.50
2024-03-11T08:14:10.835Z,84.40
2024-03-11T08:16:38.437Z,84.47
2024-03-11T08:19:09.184Z,83.62
2024-03-11T08:21:36.890Z,83.37
2024-03-11T08:24:05.123Z,83.07
2024-03-11T08:26:34.130Z,82.32
2024-03-11T08:29:04.173Z,82.47
2024-03-11T08:31:31.792Z,82.39
2024-03-11T08:33:59.541Z,82.46
2024-03-11T08:36:26.910Z,82.97
2024-03-11T08:38:55.114Z,83.00
2024-03-11T08:41:22.546Z,82.00
2024-03-11T08:43:52.228Z,82.51
2024-03-11T08:46:22.777Z,82.58
2024-03-11T08:48:50.747Z,81.80
2024-03-11T08:51:18.274Z,80.56
2024-03-11T08:53:46.355Z,80.25
2024-03-11T08:56:14.021Z,81.50
2024-03-11T08:58:42.089Z,81.46
2024-03-11T09:01:13.918Z,80.82
2024-03-11T09:03:43.595Z,80.74
2024-03-11T09:06:14.214Z,81.33
2024-03-11T09:08:44.664Z,80.30
2024-03-11T09:11:19.568Z,80.48
2024-03-11T09:13:47.827Z,79.94
2024-03-11T09:16:16.836Z,80.91
2024-03-11T09:18:47.729Z,79.75
2024-03-11T09:21:16.581Z,79.91
2024-03-11T09:23:47.020Z,79.12
2024-03-11T09:26:19.895Z,78.12
2024-03-11T09:28:47.992Z,77.92
2024-03-11T09:31:19.772Z,77.71
2024-03-11T09:33:47.693Z,77.39
2024-03-11T09:36:15.333Z,77.94
2024-03-11T09:38:43.220Z,76.60
2024-03-11T09:41:15.748Z,75.13
2024-03-11T09:43:47.593Z,77.44
2024-03-11T09:46:16.188Z,76.35
2024-03-11T09:48:46.721Z,73.81
2024-03-11T09:51:19.410Z,74.71
2024-03-11T09:53:47.466Z,72.48
2024-03-11T09:56:14.976Z,72.08
2024-03-11T09:58:49.423Z,70.61
2024-03-11T10:01:17.546Z,70.93
2024-03-11T10:03:51.482Z,70.53
2024-03-11T10:06:19.054Z,71.53
2024-03-11T10:08:48.904Z,68.61
2024-03-11T10:11:20.172Z,70.15
2024-03-11T10:13:48.943Z,67.40
2024-03-11T10:16:18.403Z,68.53
2024-03-11T10:18:58.711Z,67.96
2024-03-11T10:21:29.089Z,68.22
2024-03-11T10:23:59.495Z,67.95
2024-03-11T10:26:28.422Z,64.69
2024-03-11T10:28:56.709Z,63.20
2024-03-11T10:31:25.861Z,63.71
2024-03-11T10:33:54.185Z,64.91
2024-03-11T10:36:24.303Z,65.58
2024-03-11T10:38:53.258Z,64.64
2024-03-11T10:41:22.302Z,62.68
2024-03-11T10:43:50.324Z,61.42
2024-03-11T10:46:20.961Z,61.89
2024-03-11T10:48:49.403Z,61.32
2024-03-11T10:51:20.146Z,60.21
2024-03-11T10:54:04.229Z,59.79
2024-03-11T10:56:32.071Z,59.24
2024-03-11T10:59:04.698Z,59.49
2024-03-11T11:01:33.755Z,58.28
2024-03-11T11:04:06.564Z,57.99
2024-03-11T11:06:34.947Z,59.47
2024-03-11T11:09:06.828Z,59.94
2024-03-11T11:11:36.835Z,58.36
2024-03-11T11:14:08.501Z,57.59
2024-03-11T11:16:36.102Z,55.49
2024-03-11T11:19:04.346Z,54.67
2024-03-11T11:21:32.847Z,54.52
2024-03-11T11:24:25.494Z,54.75
2024-03-11T11:26:54.870Z,57.26
2024-03-11T11:29:23.713Z,54.47
2024-03-11T11:32:04.751Z,54.19
2024-03-11T11:34:53.465Z,54.28
2024-03-11T11:37:36.791Z,55.13
2024-03-11T11:40:30.864Z,56.83
2024-03-11T11:43:03.614Z,53.50
2024-03-11T11:45:48.323Z,53.21
2024-03-11T11:48:19.829Z,51.13
2024-03-11T11:50:47.940Z,54.87
2024-03-11T11:53:26.320Z,52.26
2024-03-11T11:55:55.569Z,52.87
2024-03-11T11:58:23.009Z,51.75
2024-03-11T12:00:59.899Z,51.53
2024-03-11T12:03:29.193Z,52.60
2024-03-11T12:06:09.475Z,49.81
2024-03-11T12:08:39.892Z,50.25
2024-03-11T12:11:16.104Z,50.58
2024-03-11T12:13:44.707Z,50.27
2024-03-11T12:16:25.556Z,50.19
2024-03-11T12:19:00.572Z,48.95
2024-03-11T12:21:29.410Z,49.60
2024-03-11T12:23:56.950Z,50.69
2024-03-11T12:26:33.114Z,50.45
2024-03-11T12:29:02.941Z,50.62
2024-03-11T12:31:30.812Z,50.07
2024-03-11T12:33:58.255Z,50.29
2024-03-11T12:36:26.148Z,50.92
2024-03-11T12:38:53.779Z,50.09
2024-03-11T12:41:49.849Z,49.22
2024-03-11T12:44:18.259Z,48.34
2024-03-11T12:46:47.939Z,50.61
2024-03-11T12:49:15.362Z,49.38
2024-03-11T12:51:43.624Z,47.99
2024-03-11T12:54:17.570Z,48.81
2024-03-11T12:56:46.509Z,48.75
2024-03-11T12:59:17.501Z,48.29
2024-03-11T13:01:45.377Z,48.81
2024-03-11T13:04:17.503Z,50.15
2024-03-11T13:06:45.705Z,49.41
2024-03-11T13:09:20.098Z,49.02
2024-03-11T13:11:59.589Z,47.31
2024-03-11T13:14:29.141Z,49.14
2024-03-11T13:16:57.777Z,50.07
2024-03-11T13:19:25.785Z,50.25
2024-03-11T13:21:59.578Z,49.97
2024-03-11T13:24:27.276Z,51.32
2024-03-11T13:26:55.310Z,50.04
2024-03-11T13:29:22.862Z,48.05
2024-03-11T13:31:52.584Z,51.35
2024-03-11T13:34:20.278Z,50.14
2024-03-11T13:36:49.033Z,49.86
2024-03-11T13:39:19.764Z,47.95
2024-03-11T13:41:49.785Z,49.13
2024-03-11T13:44:18.135Z,47.15
2024-03-11T13:46:46.473Z,46.14
2024-03-11T13:49:15.834Z,45.03
2024-03-11T13:51:43.760Z,47.07
2024-03-11T13:54:11.416Z,48.04
2024-03-11T13:56:39.395Z,46.89
2024-03-11T13:59:07.018Z,45.53
2024-03-11T14:01:35.086Z,45.58
2024-03-11T14:04:03.072Z,45.48
2024-03-11T14:06:32.472Z,44.67
2024-03-11T14:09:00.108Z,44.37
2024-03-11T14:11:28.130Z,44.28
2024-03-11T14:13:55.895Z,44.35
2024-03-11T14:16:29.521Z,46.01
2024-03-11T14:18:57.368Z,45.22
2024-03-11T14:21:25.534Z,45.31
2024-03-11T14:23:56.148Z,45.72
2024-03-11T14:26:24.341Z,46.87
2024-03-11T14:28:52.143Z,47.53
2024-03-11T14:31:20.170Z,47.74
2024-03-11T14:33:48.136Z,48.13
2024-03-11T14:36:16.284Z,49.33
2024-03-11T14:38:43.751Z,50.36
2024-03-11T14:41:13.552Z,50.21
2024-03-11T14:43:41.686Z,50.65
2024-03-11T14:46:09.778Z,51.25
2024-03-11T14:48:40.299Z,52.31
2024-03-11T14:51:11.133Z,52.92
2024-03-11T14:53:40.615Z,53.43
2024-03-11T14:56:12.811Z,54.28
2024-03-11T14:58:41.946Z,55.12
2024-03-11T15:01:09.987Z,54.11
2024-03-11T15:03:37.561Z,55.26
2024-03-11T15:06:05.714Z,55.10
2024-03-11T15:08:33.011Z,56.62
2024-03-11T15:11:01.094Z,56.15
2024-03-11T15:13:30.337Z,55.94
2024-03-11T15:15:58.581Z,54.84
2024-03-11T15:18:26.080Z,55.68
2024-03-11T15:20:54.448Z,55.32
2024-03-11T15:23:25.264Z,56.07
2024-03-11T15:25:57.865Z,55.21
2024-03-11T15:28:25.832Z,55.24
2024-03-11T15:30:59.615Z,55.45
2024-03-11T15:33:27.796Z,56.30
2024-03-11T15:35:55.893Z,56.71
2024-03-11T15:38:23.332Z,57.03
2024-03-11T15:40:52.127Z,57.48
2024-03-11T15:43:22.857Z,57.83
2024-03-11T15:45:51.420Z,58.03
2024-03-11T15:48:20.494Z,58.48
2024-03-11T15:50:49.555Z,58.88
2024-03-11T15:53:17.259Z,58.86
2024-03-11T15:55:45.289Z,59.42
2024-03-11T15:58:12.889Z,59.75
2024-03-11T16:00:41.038Z,59.67
2024-03-11T16:03:10.279Z,60.68
2024-03-11T16:05:40.145Z,61.09
2024-03-11T16:08:08.501Z,61.97
2024-03-11T16:10:36.504Z,62.61
2024-03-11T16:13:04.651Z,62.44
2024-03-11T16:15:32.569Z,62.92
2024-03-11T16:18:00.209Z,63.67
2024-03-11T16:20:32.502Z,63.67
2024-03-11T16:23:03.625Z,64.50
2024-03-11T16:25:31.613Z,63.93
2024-03-11T16:27:59.134Z,64.71
2024-03-11T16:30:27.399Z,65.06
2024-03-11T16:32:55.953Z,65.52
2024-03-11T16:35:27.304Z,65.94
2024-03-11T16:37:55.755Z,65.48
2024-03-11T16:40:25.604Z,66.13
2024-03-11T16:42:57.320Z,66.26
2024-03-11T16:45:26.324Z,66.75
2024-03-11T16:47:56.864Z,67.02
2024-03-11T16:50:24.944Z,67.17
2024-03-11T16:53:00.749Z,67.02
2024-03-11T16:55:30.151Z,66.91
2024-03-11T16:57:58.188Z,67.54
2024-03-11T17:00:26.657Z,68.03
2024-03-11T17:02:54.862Z,68.12
2024-03-11T17:05:24.990Z,67.88
2024-03-11T17:07:56.225Z,68.05
2024-03-11T17:10:32.844Z,68.49
2024-03-11T17:13:08.004Z,68.14
2024-03-11T17:15:39.357Z,69.84
2024-03-11T17:18:06.922Z,70.20
2024-03-11T17:20:39.040Z,70.59
2024-03-11T17:23:11.921Z,71.08
2024-03-11T17:25:41.151Z,71.52
2024-03-11T17:28:11.416Z,71.82
2024-03-11T17:30:42.276Z,72.18
2024-03-11T17:33:15.402Z,72.16
2024-03-11T17:35:47.690Z,72.01
2024-03-11T17:38:15.903Z,72.10
2024-03-11T17:40:47.200Z,73.12
2024-03-11T17:43:15.399Z,73.44
2024-03-11T17:45:44.439Z,74.15
2024-03-11T17:48:13.175Z,74.59
2024-03-11T17:50:46.173Z,74.87
2024-03-11T17:53:16.697Z,75.04
2024-03-11T17:55:46.457Z,75.27
2024-03-11T17:58:17.415Z,75.73
2024-03-11T18:00:50.458Z,75.29
2024-03-11T18:03:18.712Z,75.50
2024-03-11T18:05:46.728Z,75.72
2024-03-11T18:08:14.826Z,75.68
2024-03-11T18:10:42.919Z,76.03
2024-03-11T18:13:13.689Z,76.21
2024-03-11T18:15:42.240Z,76.10
2024-03-11T18:18:10.092Z,76.05
2024-03-11T18:20:38.171Z,76.32
2024-03-11T18:23:08.086Z,76.23
2024-03-11T18:25:36.208Z,76.23
2024-03-11T18:28:04.108Z,76.18
2024-03-11T18:30:33.671Z,76.15
2024-03-11T18:33:01.091Z,76.56
2024-03-11T18:35:29.991Z,76.59
2024-03-11T18:37:57.950Z,76.63
2024-03-11T18:40:26.339Z,76.48
2024-03-11T18:42:55.195Z,76.71
2024-03-11T18:45:23.486Z,77.00
2024-03-11T18:47:52.289Z,77.20
2024-03-11T18:50:23.500Z,77.20
2024-03-11T18:52:59.802Z,77.31
2024-03-11T18:55:30.010Z,77.18
2024-03-11T18:57:58.216Z,76.74
2024-03-11T19:00:26.636Z,77.26
2024-03-11T19:02:59.372Z,77.42
2024-03-11T19:05:27.920Z,77.51
2024-03-11T19:07:58.136Z,77.40
2024-03-11T19:10:26.421Z,77.86
2024-03-11T19:12:55.271Z,78.55
2024-03-11T19:15:27.486Z,78.84
2024-03-11T19:17:57.308Z,78.93
2024-03-11T19:20:33.190Z,79.57
2024-03-11T19:23:04.097Z,79.05
2024-03-11T19:25:33.920Z,79.17
2024-03-11T19:28:01.813Z,78.58
2024-03-11T19:30:34.648Z,77.75
2024-03-11T19:33:04.300Z,77.22
2024-03-11T19:35:33.727Z,76.85
2024-03-11T19:38:34.740Z,78.09
2024-03-11T19:41:10.269Z,78.02
2024-03-11T19:44:23.653Z,78.76
2024-03-11T19:47:39.871Z,79.21
2024-03-11T19:50:25.609Z,79.30
2024-03-11T19:53:29.342Z,79.34
2024-03-11T19:56:47.437Z,79.43
2024-03-11T19:59:57.696Z,79.42
2024-03-11T20:02:57.878Z,79.37
2024-03-11T20:06:02.771Z,79.20
2024-03-11T20:09:00.529Z,79.60
2024-03-11T20:12:10.853Z,79.23
2024-03-11T20:14:45.083Z,80.58
2024-03-11T20:17:32.078Z,80.83
2024-03-11T20:20:33.523Z,80.33
2024-03-11T20:23:54.734Z,80.71
2024-03-11T20:26:33.902Z,81.26
2024-03-11T20:29:13.079Z,80.88
2024-03-11T20:31:49.854Z,80.40
2024-03-11T20:34:18.085Z,80.34
2024-03-11T20:36:47.314Z,81.71
2024-03-11T20:39:15.424Z,83.24
2024-03-11T20:41:43.093Z,83.41
2024-03-11T20:44:15.571Z,83.25
2024-03-11T20:46:43.211Z,83.70
2024-03-11T20:49:11.040Z,84.41
2024-03-11T20:51:40.872Z,84.62
2024-03-11T20:54:10.225Z,84.88
2024-03-11T20:56:38.390Z,84.53
2024-03-11T20:59:06.483Z,85.07
2024-03-11T21:01:34.116Z,85.29
2024-03-11T21:04:01.914Z,85.10
2024-03-11T21:06:32.580Z,85.11
2024-03-11T21:09:00.413Z,85.93
2024-03-11T21:11:29.391Z,86.22
2024-03-11T21:13:57.331Z,86.13
2024-03-11T21:16:54.354Z,86.54
2024-03-11T21:19:22.608Z,86.52
2024-03-11T21:21:51.645Z,86.29
2024-03-11T21:24:22.754Z,86.52
2024-03-11T21:26:53.498Z,85.78
2024-03-11T21:29:21.212Z,86.57
2024-03-11T21:31:48.973Z,86.47
2024-03-11T21:34:17.325Z,86.19
2024-03-11T21:36:45.234Z,85.92
2024-03-11T21:39:14.415Z,86.20
2024-03-11T21:41:44.486Z,86.50
2024-03-11T21:44:14.541Z,86.97
2024-03-11T21:46:42.915Z,87.40
2024-03-11T21:49:12.728Z,87.48
2024-03-11T21:51:41.145Z,87.76
2024-03-11T21:54:09.740Z,87.74
2024-03-11T21:56:37.447Z,87.42
2024-03-11T21:59:05.388Z,86.83
2024-03-11T22:01:34.336Z,86.88
2024-03-11T22:04:05.139Z,85.96
2024-03-11T22:06:33.011Z,85.79
2024-03-11T22:09:01.555Z,85.78
2024-03-11T22:11:29.281Z,85.27
2024-03-11T22:13:57.101Z,84.41
2024-03-11T22:16:26.911Z,84.08
2024-03-11T22:18:57.601Z,84.18
2024-03-11T22:21:28.029Z,84.07
2024-03-11T22:23:58.201Z,84.59
2024-03-11T22:26:28.008Z,84.81
2024-03-11T22:28:58.137Z,84.51
2024-03-11T22:31:29.006Z,85.44
2024-03-11T22:34:01.299Z,86.06
2024-03-11T22:36:29.191Z,86.29
2024-03-11T22:39:00.165Z,86.52
2024-03-11T22:41:28.148Z,87.06
2024-03-11T22:43:56.524Z,86.79
2024-03-11T22:46:25.932Z,87.10
2024-03-11T22:49:01.457Z,86.95
2024-03-11T22:51:35.262Z,87.60
2024-03-11T22:54:06.385Z,87.12
2024-03-11T22:56:33.952Z,86.49
2024-03-11T22:59:02.250Z,85.75
2024-03-11T23:01:32.808Z,85.27
2024-03-11T23:04:00.969Z,85.45
2024-03-11T23:06:28.576Z,86.15
2024-03-11T23:08:57.965Z,85.87
2024-03-11T23:11:25.410Z,84.64
2024-03-11T23:13:53.359Z,85.50
2024-03-11T23:16:20.847Z,85.38
2024-03-11T23:18:49.104Z,85.31
2024-03-11T23:21:16.721Z,84.30
2024-03-11T23:23:44.994Z,84.30
2024-03-11T23:26:16.738Z,83.86
2024-03-11T23:28:44.561Z,83.72
2024-03-11T23:31:12.034Z,83.84
2024-03-11T23:33:40.005Z,83.70
2024-03-11T23:36:08.079Z,84.61
2024-03-11T23:38:35.862Z,84.90
2024-03-11T23:41:03.383Z,84.50
2024-03-11T23:43:35.966Z,84.48
2024-03-11T23:46:04.033Z,84.21
2024-03-11T23:48:31.777Z,85.01
2024-03-11T23:50:59.302Z,84.41
2024-03-11T23:53:27.298Z,84.16
2024-03-11T23:55:56.006Z,84.22
2024-03-11T23:58:23.693Z,84.66
